createdAt,value
2019-04-21T00:01:57.853Z,12.90
2019-04-21T00:04:40.718Z,13.70
2019-04-21T00:07:31.897Z,14.47
2019-04-21T00:12:19.667Z,14.40
2019-04-21T00:14:42.393Z,11.83
2019-04-21T00:17:05.869Z,14.83
2019-04-21T00:19:43.022Z,14.93
2019-04-21T00:22:23.700Z,12.90
2019-04-21T00:24:59.769Z,14.33
2019-04-21T00:27:32.026Z,15.40
2019-04-21T00:30:04.626Z,13.80
2019-04-21T00:32:28.088Z,16.00
2019-04-21T00:34:51.009Z,12.90
2019-04-21T00:37:24.175Z,12.93
2019-04-21T00:40:06.322Z,19.27
2019-04-21T00:42:37.411Z,12.47
2019-04-21T00:45:01.938Z,16.20
2019-04-21T00:47:35.826Z,15.47
2019-04-21T00:50:05.081Z,15.60
2019-04-21T00:52:51.001Z,12.43
2019-04-21T00:57:51.710Z,15.33
2019-04-21T01:00:20.235Z,13.37
2019-04-21T01:02:52.534Z,14.10
2019-04-21T01:05:36.101Z,16.30
2019-04-21T01:07:48.244Z,16.10
2019-04-21T01:10:09.371Z,14.23
2019-04-21T01:12:49.264Z,15.93
2019-04-21T01:15:24.641Z,13.47
2019-04-21T01:17:46.028Z,15.13
2019-04-21T01:20:13.273Z,15.67
2019-04-21T01:22:28.218Z,13.70
2019-04-21T01:25:05.605Z,16.77
2019-04-21T01:27:49.408Z,15.03
2019-04-21T01:30:16.519Z,14.37
2019-04-21T01:32:51.246Z,16.13
2019-04-21T01:35:16.439Z,16.10
2019-04-21T01:37:52.423Z,13.73
2019-04-21T01:40:22.906Z,16.13
2019-04-21T01:42:51.161Z,14.13
2019-04-21T01:45:14.703Z,14.77
2019-04-21T01:47:46.325Z,15.47
2019-04-21T01:50:19.843Z,14.03
2019-04-21T01:53:11.344Z,15.50
2019-04-21T01:55:25.242Z,24.07
2019-04-21T01:57:54.002Z,14.30
2019-04-21T02:00:30.522Z,15.00
2019-04-21T02:03:10.735Z,21.20
2019-04-21T02:05:37.548Z,17.23
2019-04-21T02:08:01.086Z,15.23
2019-04-21T02:10:44.419Z,15.43
2019-04-21T02:13:03.448Z,16.80
2019-04-21T02:15:36.044Z,15.27
2019-04-21T02:18:06.091Z,16.83
2019-04-21T02:20:26.944Z,17.70
2019-04-21T02:23:19.089Z,16.93
2019-04-21T02:25:41.019Z,17.83
2019-04-21T02:28:13.453Z,18.60
2019-04-21T02:30:57.995Z,16.33
2019-04-21T02:33:28.008Z,19.00
2019-04-21T02:38:23.773Z,17.17
2019-04-21T02:40:51.356Z,18.77
2019-04-21T02:48:35.295Z,18.07
2019-04-21T02:50:47.252Z,17.63
2019-04-21T02:53:37.409Z,16.60
2019-04-21T02:55:50.846Z,20.47
2019-04-21T03:01:24.371Z,21.43
2019-04-21T03:04:04.844Z,27.67
2019-04-21T03:06:27.133Z,26.83
2019-04-21T03:11:24.173Z,21.83
2019-04-21T03:13:57.291Z,20.50
2019-04-21T03:16:22.566Z,21.30
2019-04-21T03:19:04.929Z,19.10
2019-04-21T03:21:25.913Z,20.13
2019-04-21T03:23:54.061Z,17.80
2019-04-21T03:26:28.327Z,22.33
2019-04-21T03:28:54.420Z,20.53
2019-04-21T03:31:49.452Z,18.17
2019-04-21T03:34:34.744Z,20.37
2019-04-21T03:38:57.213Z,22.47
2019-04-21T03:43:58.946Z,25.27
2019-04-21T03:46:39.275Z,18.93
2019-04-21T03:53:54.003Z,21.90
2019-04-21T03:56:44.345Z,20.47
2019-04-21T03:58:58.498Z,18.67
2019-04-21T04:04:15.594Z,22.10
2019-04-21T04:06:46.952Z,20.57
2019-04-21T04:09:44.495Z,23.03
2019-04-21T04:11:56.687Z,19.93
2019-04-21T04:14:33.504Z,21.60
2019-04-21T04:17:10.143Z,21.20
2019-04-21T04:19:34.401Z,21.07
2019-04-21T04:22:06.028Z,21.67
2019-04-21T04:24:39.611Z,22.20
2019-04-21T04:27:09.748Z,21.23
2019-04-21T04:31:55.387Z,22.70
2019-04-21T04:37:12.634Z,22.40
2019-04-21T04:44:59.669Z,22.93
2019-04-21T04:47:18.343Z,21.43
2019-04-21T04:49:47.960Z,24.37
2019-04-21T04:57:27.467Z,26.53
2019-04-21T04:59:47.623Z,25.00
2019-04-21T05:02:20.663Z,24.80
2019-04-21T05:04:59.276Z,22.37
2019-04-21T05:07:17.416Z,22.53
2019-04-21T05:09:46.927Z,23.57
2019-04-21T05:12:11.960Z,25.23
2019-04-21T05:14:48.239Z,24.53
2019-04-21T05:17:21.517Z,23.40
2019-04-21T05:19:54.018Z,24.13
2019-04-21T05:22:16.855Z,24.47
2019-04-21T05:24:33.274Z,22.30
2019-04-21T05:27:05.032Z,24.70
2019-04-21T05:29:56.783Z,24.30
2019-04-21T05:32:16.997Z,23.60
2019-04-21T05:34:50.339Z,30.00
2019-04-21T05:37:31.696Z,25.37
2019-04-21T05:39:57.478Z,23.50
2019-04-21T05:42:28.445Z,25.03
2019-04-21T05:45:07.682Z,26.50
2019-04-21T05:47:39.761Z,26.87
2019-04-21T05:50:07.598Z,28.27
2019-04-21T05:52:35.371Z,25.33
2019-04-21T05:55:16.723Z,26.27
2019-04-21T05:57:44.231Z,26.90
2019-04-21T06:00:15.632Z,26.53
2019-04-21T06:02:47.164Z,26.27
2019-04-21T06:05:23.184Z,27.17
2019-04-21T06:07:42.720Z,27.33
2019-04-21T06:10:12.418Z,26.23
2019-04-21T06:12:50.307Z,30.83
2019-04-21T06:15:26.570Z,26.87
2019-04-21T06:17:55.045Z,27.43
2019-04-21T06:20:21.221Z,26.50
2019-04-21T06:22:54.236Z,25.57
2019-04-21T06:25:43.143Z,25.83
2019-04-21T06:27:51.016Z,27.30
2019-04-21T06:30:22.090Z,26.00
2019-04-21T06:32:49.119Z,28.47
2019-04-21T06:35:45.550Z,28.67
2019-04-21T06:38:03.787Z,30.50
2019-04-21T06:40:38.976Z,28.20
2019-04-21T06:43:13.017Z,25.93
2019-04-21T06:45:37.776Z,26.53
2019-04-21T06:48:06.297Z,27.73
2019-04-21T06:50:39.535Z,31.43
2019-04-21T06:53:06.827Z,29.20
2019-04-21T06:55:32.068Z,28.37
2019-04-21T06:58:07.908Z,30.47
2019-04-21T07:00:31.826Z,27.60
2019-04-21T07:03:16.012Z,27.77
2019-04-21T07:05:44.101Z,26.90
2019-04-21T07:08:21.692Z,28.17
2019-04-21T07:10:37.151Z,26.83
2019-04-21T07:13:03.671Z,29.63
2019-04-21T07:15:37.403Z,29.30
2019-04-21T07:18:12.912Z,27.80
2019-04-21T07:20:36.628Z,28.10
2019-04-21T07:23:09.444Z,28.03
2019-04-21T07:25:39.083Z,28.67
2019-04-21T07:28:10.829Z,31.20
2019-04-21T07:30:51.857Z,30.13
2019-04-21T07:33:36.027Z,28.10
2019-04-21T07:35:45.682Z,30.40
2019-04-21T07:38:09.638Z,29.30
2019-04-21T07:40:33.390Z,32.07
2019-04-21T07:43:08.646Z,28.90
2019-04-21T07:45:36.728Z,28.87
2019-04-21T07:48:14.324Z,28.77
2019-04-21T07:50:47.383Z,30.00
2019-04-21T07:53:36.470Z,31.77
2019-04-21T07:55:40.218Z,29.00
2019-04-21T07:58:31.831Z,29.73
2019-04-21T08:03:47.809Z,28.73
2019-04-21T08:06:09.873Z,28.87
2019-04-21T08:08:26.514Z,27.50
2019-04-21T08:10:56.969Z,28.63
2019-04-21T08:15:58.183Z,29.70
2019-04-21T08:18:33.505Z,29.10
2019-04-21T08:21:00.780Z,29.27
2019-04-21T08:23:31.831Z,29.70
2019-04-21T08:26:04.716Z,29.50
2019-04-21T08:28:35.428Z,28.00
2019-04-21T08:31:01.401Z,30.70
2019-04-21T08:33:38.389Z,30.50
2019-04-21T08:38:35.884Z,28.47
2019-04-21T08:46:08.147Z,27.63
2019-04-21T08:48:37.917Z,29.50
2019-04-21T08:51:24.489Z,30.23
2019-04-21T08:53:41.135Z,29.60
2019-04-21T08:58:56.068Z,31.00
2019-04-21T09:01:30.691Z,30.27
2019-04-21T09:04:02.761Z,27.80
2019-04-21T09:06:51.250Z,29.77
2019-04-21T09:09:17.892Z,27.83
2019-04-21T09:11:30.725Z,29.50
2019-04-21T09:14:04.748Z,29.43
2019-04-21T09:16:27.839Z,29.40
2019-04-21T09:18:54.390Z,28.73
2019-04-21T09:21:31.408Z,28.50
2019-04-21T09:24:04.542Z,27.83
2019-04-21T09:26:29.401Z,28.47
2019-04-21T09:28:52.231Z,30.60
2019-04-21T09:31:17.952Z,30.50
2019-04-21T09:33:48.780Z,31.00
2019-04-21T09:36:18.048Z,31.10
2019-04-21T09:38:50.722Z,30.90
2019-04-21T09:41:18.944Z,31.33
2019-04-21T09:43:48.956Z,31.97
2019-04-21T09:46:16.126Z,31.47
2019-04-21T09:48:54.912Z,31.40
2019-04-21T09:51:15.556Z,31.20
2019-04-21T09:53:56.164Z,30.33
2019-04-21T09:56:17.964Z,28.27
2019-04-21T09:58:49.739Z,27.30
2019-04-21T10:01:23.958Z,29.90
2019-04-21T10:03:48.680Z,31.93
2019-04-21T10:06:17.506Z,29.30
2019-04-21T10:08:50.371Z,30.67
2019-04-21T10:11:16.493Z,32.27
2019-04-21T10:13:46.242Z,30.87
2019-04-21T10:16:34.180Z,28.70
2019-04-21T10:19:04.524Z,27.00
2019-04-21T10:21:33.918Z,26.27
2019-04-21T10:24:02.577Z,26.40
2019-04-21T10:26:31.147Z,25.87
2019-04-21T10:29:08.171Z,26.90
2019-04-21T10:31:29.937Z,28.57
2019-04-21T10:33:59.090Z,27.43
2019-04-21T10:36:28.962Z,28.73
2019-04-21T10:38:58.984Z,27.17
2019-04-21T10:41:27.826Z,28.00
2019-04-21T10:43:56.431Z,27.37
2019-04-21T10:46:24.994Z,26.90
2019-04-21T10:48:54.827Z,25.87
2019-04-21T10:51:23.540Z,27.30
2019-04-21T10:53:54.290Z,28.17
2019-04-21T10:56:30.647Z,26.33
2019-04-21T10:58:54.171Z,27.20
2019-04-21T11:01:25.172Z,27.03
2019-04-21T11:04:02.585Z,29.73
2019-04-21T11:06:32.494Z,28.73
2019-04-21T11:09:01.983Z,27.30
2019-04-21T11:11:32.124Z,27.23
2019-04-21T11:14:02.233Z,26.43
2019-04-21T11:16:31.077Z,27.33
2019-04-21T11:18:59.999Z,29.27
2019-04-21T11:21:29.164Z,27.07
2019-04-21T11:23:58.470Z,27.10
2019-04-21T11:26:27.620Z,26.87
2019-04-21T11:28:56.800Z,28.00
2019-04-21T11:31:27.234Z,27.67
2019-04-21T11:33:57.426Z,29.90
2019-04-21T11:36:27.128Z,27.67
2019-04-21T11:39:16.351Z,29.77
2019-04-21T11:41:31.875Z,24.50
2019-04-21T11:44:01.453Z,24.20
2019-04-21T11:46:30.774Z,29.23
2019-04-21T11:49:00.093Z,24.73
2019-04-21T11:51:28.990Z,22.13
2019-04-21T11:53:59.047Z,26.27
2019-04-21T11:56:27.878Z,25.27
2019-04-21T11:58:57.821Z,28.47
2019-04-21T12:01:27.657Z,26.73
2019-04-21T12:03:57.830Z,28.10
2019-04-21T12:06:32.234Z,24.43
2019-04-21T12:08:59.831Z,24.90
2019-04-21T12:11:27.424Z,25.27
2019-04-21T12:13:56.330Z,27.40
2019-04-21T12:16:25.202Z,27.80
2019-04-21T12:18:54.672Z,24.27
2019-04-21T12:21:23.432Z,24.03
2019-04-21T12:23:52.401Z,23.10
2019-04-21T12:26:22.042Z,25.03
2019-04-21T12:28:51.933Z,25.57
2019-04-21T12:31:27.634Z,21.33
2019-04-21T12:33:58.143Z,21.37
2019-04-21T12:36:27.571Z,22.13
2019-04-21T12:38:59.668Z,21.30
2019-04-21T12:41:26.740Z,20.77
2019-04-21T12:43:55.393Z,20.13
2019-04-21T12:46:24.041Z,19.07
2019-04-21T12:48:53.728Z,19.50
2019-04-21T12:51:23.847Z,20.13
2019-04-21T12:53:53.926Z,20.87
2019-04-21T12:56:23.421Z,23.07
2019-04-21T12:58:53.286Z,21.00
2019-04-21T13:01:23.070Z,19.53
2019-04-21T13:03:52.111Z,18.17
2019-04-21T13:06:21.411Z,17.53
2019-04-21T13:08:58.915Z,16.50
2019-04-21T13:11:21.399Z,16.87
2019-04-21T13:13:50.610Z,15.80
2019-04-21T13:16:19.609Z,16.77
2019-04-21T13:18:49.221Z,18.33
2019-04-21T13:21:18.158Z,20.50
2019-04-21T13:23:47.246Z,18.70
2019-04-21T13:26:27.069Z,19.87
2019-04-21T13:28:46.065Z,17.63
2019-04-21T13:31:16.055Z,17.70
2019-04-21T13:33:46.061Z,18.33
2019-04-21T13:36:15.761Z,19.33
2019-04-21T13:39:27.520Z,20.47
2019-04-21T13:41:41.846Z,20.73
2019-04-21T13:44:13.293Z,21.07
2019-04-21T13:46:43.076Z,20.17
2019-04-21T13:49:13.691Z,19.60
2019-04-21T13:51:43.847Z,20.60
2019-04-21T13:54:13.889Z,21.63
2019-04-21T13:56:42.677Z,22.30
2019-04-21T13:59:11.371Z,21.03
2019-04-21T14:01:41.311Z,20.10
2019-04-21T14:04:11.529Z,20.97
2019-04-21T14:06:42.386Z,23.27
2019-04-21T14:09:13.712Z,21.53
2019-04-21T14:11:43.580Z,19.97
2019-04-21T14:14:12.521Z,18.43
2019-04-21T14:16:42.282Z,22.43
2019-04-21T14:19:11.043Z,20.10
2019-04-21T14:21:41.322Z,20.03
2019-04-21T14:24:10.883Z,19.07
2019-04-21T14:26:40.460Z,19.77
2019-04-21T14:29:09.874Z,20.13
2019-04-21T14:31:40.202Z,23.60
2019-04-21T14:34:10.074Z,21.00
2019-04-21T14:36:39.023Z,20.53
2019-04-21T14:39:10.566Z,19.93
2019-04-21T14:41:40.315Z,21.40
2019-04-21T14:44:09.257Z,19.80
2019-04-21T14:46:42.802Z,19.90
2019-04-21T14:49:13.149Z,21.83
2019-04-21T14:51:49.548Z,23.47
2019-04-21T14:54:20.644Z,19.80
2019-04-21T14:56:49.382Z,19.30
2019-04-21T14:59:19.240Z,22.87
2019-04-21T15:01:49.469Z,19.40
2019-04-21T15:04:19.371Z,17.50
2019-04-21T15:06:49.552Z,17.03
2019-04-21T15:09:18.899Z,16.70
2019-04-21T15:11:47.765Z,19.97
2019-04-21T15:14:17.759Z,18.07
2019-04-21T15:16:47.077Z,20.47
2019-04-21T15:19:16.881Z,15.63
2019-04-21T15:21:45.684Z,17.53
2019-04-21T15:24:14.319Z,17.47
2019-04-21T15:26:44.194Z,18.93
2019-04-21T15:29:13.015Z,18.13
2019-04-21T15:31:44.610Z,15.03
2019-04-21T15:34:12.983Z,15.10
2019-04-21T15:36:41.975Z,15.43
2019-04-21T15:39:11.892Z,16.63
2019-04-21T15:41:40.839Z,16.87
2019-04-21T15:44:09.869Z,15.80
2019-04-21T15:46:39.906Z,13.10
2019-04-21T15:49:09.215Z,19.87
2019-04-21T15:51:38.051Z,14.67
2019-04-21T15:54:06.934Z,14.03
2019-04-21T15:56:40.784Z,13.30
2019-04-21T15:59:14.717Z,13.17
2019-04-21T16:01:52.417Z,13.57
2019-04-21T16:04:21.033Z,14.50
2019-04-21T16:06:49.887Z,14.47
2019-04-21T16:09:21.665Z,14.80
2019-04-21T16:11:49.717Z,16.97
2019-04-21T16:14:18.727Z,15.13
2019-04-21T16:16:47.470Z,13.43
2019-04-21T16:19:16.428Z,15.80
2019-04-21T16:21:46.517Z,13.80
2019-04-21T16:24:16.415Z,14.00
2019-04-21T16:26:46.736Z,12.87
2019-04-21T16:29:15.549Z,15.40
2019-04-21T16:31:44.068Z,13.50
2019-04-21T16:34:13.740Z,12.97
2019-04-21T16:36:43.532Z,12.37
2019-04-21T16:39:13.198Z,12.70
2019-04-21T16:41:42.583Z,12.33
2019-04-21T16:44:11.284Z,14.80
2019-04-21T16:46:41.254Z,12.23
2019-04-21T16:49:09.933Z,14.73
2019-04-21T16:51:38.505Z,16.70
2019-04-21T16:54:10.091Z,16.07
2019-04-21T16:56:46.183Z,14.40
2019-04-21T16:59:16.723Z,11.93
2019-04-21T17:01:46.776Z,12.23
2019-04-21T17:04:16.016Z,13.57
2019-04-21T17:06:47.135Z,15.83
2019-04-21T17:09:16.796Z,13.57
2019-04-21T17:11:46.957Z,16.60
2019-04-21T17:14:33.065Z,14.93
2019-04-21T17:17:11.386Z,15.00
2019-04-21T17:19:26.968Z,13.77
2019-04-21T17:21:47.824Z,12.90
2019-04-21T17:24:16.778Z,15.97
2019-04-21T17:26:46.480Z,11.03
2019-04-21T17:29:16.860Z,12.73
2019-04-21T17:31:45.709Z,13.73
2019-04-21T17:34:21.193Z,12.47
2019-04-21T17:36:45.380Z,15.67
2019-04-21T17:39:14.123Z,17.13
2019-04-21T17:42:04.065Z,13.97
2019-04-21T17:44:17.163Z,11.97
2019-04-21T17:46:53.826Z,12.17
2019-04-21T17:49:17.166Z,15.37
2019-04-21T17:52:06.397Z,16.13
2019-04-21T17:54:41.865Z,12.20
2019-04-21T17:57:26.758Z,12.30
2019-04-21T18:00:04.058Z,12.33
2019-04-21T18:02:30.056Z,11.60
2019-04-21T18:05:03.744Z,14.70
2019-04-21T18:07:31.178Z,11.40
2019-04-21T18:10:04.503Z,15.27
2019-04-21T18:12:32.198Z,12.77
2019-04-21T18:14:59.238Z,12.47
2019-04-21T18:17:16.356Z,12.43
2019-04-21T18:19:47.460Z,14.03
2019-04-21T18:22:39.591Z,12.83
2019-04-21T18:25:15.360Z,12.43
2019-04-21T18:27:38.775Z,15.57
2019-04-21T18:30:34.028Z,14.07
2019-04-21T18:33:04.681Z,12.97
2019-04-21T18:35:37.534Z,14.50
2019-04-21T18:38:16.801Z,13.37
2019-04-21T18:40:45.216Z,12.43
2019-04-21T18:46:07.038Z,14.03
2019-04-21T18:48:24.580Z,13.97
2019-04-21T18:50:57.037Z,14.20
2019-04-21T18:53:36.449Z,15.33
2019-04-21T18:55:59.432Z,14.77
2019-04-21T18:58:22.461Z,15.23
2019-04-21T19:00:53.045Z,13.43
2019-04-21T19:03:29.193Z,15.50
2019-04-21T19:05:56.666Z,14.63
2019-04-21T19:08:39.256Z,14.63
2019-04-21T19:11:15.011Z,14.57
2019-04-21T19:14:12.706Z,14.00
2019-04-21T19:16:38.918Z,15.33
2019-04-21T19:19:18.525Z,13.63
2019-04-21T19:21:25.808Z,15.27
2019-04-21T19:24:10.507Z,16.93
2019-04-21T19:26:37.752Z,16.10
2019-04-21T19:29:01.252Z,13.30
2019-04-21T19:31:31.857Z,14.00
2019-04-21T19:33:51.599Z,14.90
2019-04-21T19:36:13.237Z,13.73
2019-04-21T19:38:51.730Z,14.37
2019-04-21T19:41:28.140Z,15.10
2019-04-21T19:44:02.569Z,13.97
2019-04-21T19:46:27.847Z,12.63
2019-04-21T19:49:13.753Z,13.97
2019-04-21T19:51:29.029Z,14.33
2019-04-21T19:53:54.018Z,15.47
2019-04-21T19:56:14.367Z,13.90
2019-04-21T19:58:46.055Z,13.47
2019-04-21T20:01:13.772Z,13.97
2019-04-21T20:03:43.147Z,15.50
2019-04-21T20:06:31.537Z,13.90
2019-04-21T20:09:00.726Z,14.03
2019-04-21T20:11:30.800Z,14.23
2019-04-21T20:14:35.746Z,15.03
2019-04-21T20:16:37.407Z,13.67
2019-04-21T20:18:49.545Z,17.33
2019-04-21T20:21:14.439Z,14.43
2019-04-21T20:23:44.694Z,16.73
2019-04-21T20:26:14.064Z,14.27
2019-04-21T20:28:54.731Z,15.70
2019-04-21T20:31:34.370Z,13.87
2019-04-21T20:34:07.823Z,13.70
2019-04-21T20:36:38.026Z,14.73
2019-04-21T20:38:51.534Z,14.77
2019-04-21T20:41:27.018Z,13.90
2019-04-21T20:44:06.211Z,14.00
2019-04-21T20:46:36.584Z,14.07
2019-04-21T20:49:00.077Z,16.77
2019-04-21T20:51:35.887Z,15.67
2019-04-21T20:54:00.519Z,15.60
2019-04-21T20:56:27.687Z,14.37
2019-04-21T20:58:59.993Z,18.07
2019-04-21T21:01:34.872Z,16.83
2019-04-21T21:04:02.281Z,14.87
2019-04-21T21:06:33.685Z,15.80
2019-04-21T21:09:06.156Z,15.03
2019-04-21T21:11:45.115Z,15.20
2019-04-21T21:14:06.990Z,20.87
2019-04-21T21:16:41.437Z,16.37
2019-04-21T21:21:34.115Z,17.37
2019-04-21T21:24:05.382Z,17.37
2019-04-21T21:26:36.789Z,17.30
2019-04-21T21:28:57.450Z,20.03
2019-04-21T21:31:38.712Z,17.87
2019-04-21T21:34:11.922Z,18.80
2019-04-21T21:36:36.758Z,17.53
2019-04-21T21:39:09.552Z,18.57
2019-04-21T21:41:26.422Z,20.33
2019-04-21T21:44:00.526Z,21.23
2019-04-21T21:46:36.778Z,20.80
2019-04-21T21:49:01.742Z,23.03
2019-04-21T21:51:35.854Z,25.83
2019-04-21T21:53:52.721Z,21.13
2019-04-21T21:56:22.678Z,20.20
2019-04-21T21:58:51.941Z,22.13
2019-04-21T22:01:31.997Z,21.13
2019-04-21T22:04:01.692Z,20.70
2019-04-21T22:06:23.939Z,19.53
2019-04-21T22:08:52.453Z,20.30
2019-04-21T22:11:22.131Z,23.07
2019-04-21T22:13:57.618Z,21.30
2019-04-21T22:16:21.838Z,18.97
2019-04-21T22:19:06.884Z,19.37
2019-04-21T22:21:41.538Z,19.03
2019-04-21T22:23:59.423Z,19.40
2019-04-21T22:26:22.969Z,19.33
2019-04-21T22:28:53.793Z,18.00
2019-04-21T22:31:26.870Z,19.50
2019-04-21T22:33:55.721Z,18.33
2019-04-21T22:36:35.435Z,20.07
2019-04-21T22:39:17.653Z,20.77
2019-04-21T22:41:31.010Z,18.73
2019-04-21T22:43:55.235Z,17.40
2019-04-21T22:46:24.421Z,18.53
2019-04-21T22:48:57.277Z,18.50
2019-04-21T22:51:30.525Z,16.63
2019-04-21T22:53:55.561Z,19.17
2019-04-21T22:56:26.862Z,20.13
2019-04-21T22:58:54.997Z,20.93
2019-04-21T23:01:33.391Z,17.77
2019-04-21T23:03:59.239Z,18.77
2019-04-21T23:06:29.049Z,17.80
2019-04-21T23:08:55.421Z,22.47
2019-04-21T23:11:29.287Z,18.37
2019-04-21T23:14:04.077Z,18.93
2019-04-21T23:16:30.101Z,22.80
2019-04-21T23:19:17.055Z,19.60
2019-04-21T23:21:45.799Z,19.17
2019-04-21T23:24:13.444Z,20.00
2019-04-21T23:26:42.030Z,19.90
2019-04-21T23:29:15.657Z,18.67
2019-04-21T23:31:48.299Z,21.33
2019-04-21T23:33:56.380Z,20.07
2019-04-21T23:36:29.671Z,20.37
2019-04-21T23:38:57.120Z,25.57
2019-04-21T23:41:33.579Z,19.50
2019-04-21T23:44:02.962Z,20.70
2019-04-21T23:46:29.844Z,20.00
2019-04-21T23:49:12.617Z,20.90
2019-04-21T23:51:37.738Z,20.40
2019-04-21T23:53:57.518Z,19.80
2019-04-21T23:56:33.284Z,20.30
2019-04-21T23:59:02.638Z,24.13
